BEL8CL EDDH-EBBR
Flight info
| Callsign | BEL8CL |
|---|---|
| Flight time | 0h 51m |
| Altitude | 34000 |
| Route | WSN5G WSN N125 SILQI N872 LILSI/N0444F330 Z310 WOODY |
| Aircraft | A320/M-SDE3FGHIRWY/LB1 |
Departure
| Time | 2026-05-07 18:26 |
|---|---|
| Airport | Hamburg Helmut Schmidt Airport (EDDH) |
Arrival
| Time | 2026-05-07 19:17 |
|---|---|
| Airport | Brussels Airport (EBBR) |
| Time | Latitude | Longitude | Altitude | Speed | Heading |
|---|---|---|---|---|---|
| 2026-05-07 17:41 | 53.63206 | 10.00375 | 49 ft | 0 kts | 86° |
| 2026-05-07 18:06 | 53.63206 | 10.00372 | 48 ft | 2 kts | 86° |
| 2026-05-07 18:07 | 53.63204 | 10.00330 | 48 ft | 4 kts | 86° |
| 2026-05-07 18:07 | 53.63203 | 10.00284 | 48 ft | 4 kts | 86° |
| 2026-05-07 18:07 | 53.63202 | 10.00248 | 48 ft | 4 kts | 90° |
| 2026-05-07 18:07 | 53.63205 | 10.00205 | 48 ft | 4 kts | 118° |
| 2026-05-07 18:08 | 53.63221 | 10.00179 | 45 ft | 3 kts | 174° |
| 2026-05-07 18:08 | 53.63223 | 10.00178 | 45 ft | 0 kts | 176° |
| 2026-05-07 18:12 | 53.63201 | 10.00181 | 48 ft | 5 kts | 176° |
| 2026-05-07 18:12 | 53.63159 | 10.00186 | 47 ft | 8 kts | 175° |
| 2026-05-07 18:12 | 53.63086 | 10.00192 | 47 ft | 10 kts | 188° |
| 2026-05-07 18:13 | 53.63039 | 10.00152 | 48 ft | 1 kts | 212° |
| 2026-05-07 18:13 | 53.63037 | 10.00150 | 48 ft | 2 kts | 212° |
| 2026-05-07 18:13 | 53.62999 | 10.00109 | 48 ft | 7 kts | 214° |
| 2026-05-07 18:13 | 53.62975 | 10.00083 | 48 ft | 3 kts | 213° |
| 2026-05-07 18:14 | 53.62961 | 10.00068 | 47 ft | 2 kts | 213° |
| 2026-05-07 18:14 | 53.62958 | 10.00064 | 47 ft | 0 kts | 213° |
| 2026-05-07 18:14 | 53.62956 | 10.00062 | 48 ft | 3 kts | 212° |
| 2026-05-07 18:15 | 53.62921 | 10.00065 | 48 ft | 5 kts | 177° |
| 2026-05-07 18:15 | 53.62890 | 10.00063 | 48 ft | 4 kts | 182° |
| 2026-05-07 18:15 | 53.62836 | 10.00079 | 48 ft | 12 kts | 156° |
| 2026-05-07 18:15 | 53.62764 | 10.00141 | 48 ft | 11 kts | 153° |
| 2026-05-07 18:16 | 53.62702 | 10.00195 | 48 ft | 9 kts | 152° |
| 2026-05-07 18:16 | 53.62663 | 10.00230 | 48 ft | 5 kts | 153° |
| 2026-05-07 18:16 | 53.62634 | 10.00254 | 48 ft | 4 kts | 153° |
| 2026-05-07 18:16 | 53.62611 | 10.00271 | 48 ft | 3 kts | 164° |
| 2026-05-07 18:17 | 53.62575 | 10.00220 | 48 ft | 9 kts | 242° |
| 2026-05-07 18:17 | 53.62568 | 10.00198 | 46 ft | 0 kts | 242° |
| 2026-05-07 18:23 | 53.62568 | 10.00196 | 47 ft | 2 kts | 242° |
| 2026-05-07 18:24 | 53.62547 | 10.00132 | 43 ft | 8 kts | 244° |
| 2026-05-07 18:24 | 53.62540 | 10.00046 | 47 ft | 9 kts | 283° |
| 2026-05-07 18:24 | 53.62577 | 9.99996 | 47 ft | 0 kts | 332° |
| 2026-05-07 18:25 | 53.62637 | 9.99945 | 46 ft | 41 kts | 333° |
| 2026-05-07 18:25 | 53.63113 | 9.99536 | 46 ft | 109 kts | 333° |
| 2026-05-07 18:25 | 53.63948 | 9.98814 | 51 ft | 159 kts | 333° |
| 2026-05-07 18:25 | 53.64957 | 9.97955 | 574 ft | 162 kts | 339° |
| 2026-05-07 18:26 | 53.66002 | 9.97146 | 1213 ft | 169 kts | 338° |
| 2026-05-07 18:26 | 53.67055 | 9.96229 | 1905 ft | 171 kts | 335° |
| 2026-05-07 18:26 | 53.68097 | 9.95252 | 2597 ft | 171 kts | 335° |
| 2026-05-07 18:26 | 53.69155 | 9.94332 | 3281 ft | 172 kts | 336° |
| 2026-05-07 18:27 | 53.70261 | 9.93389 | 3664 ft | 191 kts | 335° |
| 2026-05-07 18:27 | 53.71283 | 9.91783 | 3946 ft | 217 kts | 297° |
| 2026-05-07 18:27 | 53.71465 | 9.89158 | 4296 ft | 235 kts | 257° |
| 2026-05-07 18:27 | 53.71171 | 9.87336 | 4524 ft | 251 kts | 252° |
| 2026-05-07 18:28 | 53.70389 | 9.83381 | 5270 ft | 275 kts | 250° |
| 2026-05-07 18:28 | 53.69759 | 9.80363 | 6163 ft | 279 kts | 250° |
| 2026-05-07 18:28 | 53.69115 | 9.77262 | 7062 ft | 282 kts | 250° |
| 2026-05-07 18:28 | 53.68471 | 9.74126 | 7969 ft | 283 kts | 251° |
| 2026-05-07 18:29 | 53.67833 | 9.70966 | 8862 ft | 286 kts | 251° |
| 2026-05-07 18:29 | 53.67194 | 9.67771 | 9718 ft | 290 kts | 251° |
| 2026-05-07 18:29 | 53.66550 | 9.64519 | 10157 ft | 294 kts | 251° |
| 2026-05-07 18:29 | 53.65884 | 9.61156 | 10570 ft | 314 kts | 251° |
| 2026-05-07 18:30 | 53.65007 | 9.57653 | 10836 ft | 335 kts | 241° |
| 2026-05-07 18:30 | 53.63705 | 9.54326 | 11428 ft | 344 kts | 234° |
| 2026-05-07 18:30 | 53.62305 | 9.51072 | 12179 ft | 347 kts | 234° |
| 2026-05-07 18:30 | 53.60882 | 9.47754 | 12948 ft | 350 kts | 234° |
| 2026-05-07 18:31 | 53.59435 | 9.44375 | 13727 ft | 353 kts | 234° |
| 2026-05-07 18:31 | 53.58004 | 9.41037 | 14400 ft | 356 kts | 234° |
| 2026-05-07 18:31 | 53.56547 | 9.37648 | 15041 ft | 359 kts | 234° |
| 2026-05-07 18:31 | 53.55072 | 9.34233 | 15706 ft | 362 kts | 234° |
| 2026-05-07 18:32 | 53.53603 | 9.30832 | 16342 ft | 365 kts | 234° |
| 2026-05-07 18:32 | 53.52105 | 9.27365 | 16967 ft | 369 kts | 234° |
| 2026-05-07 18:32 | 53.50588 | 9.23862 | 17564 ft | 373 kts | 234° |
| 2026-05-07 18:32 | 53.49055 | 9.20321 | 18181 ft | 376 kts | 234° |
| 2026-05-07 18:33 | 53.47507 | 9.16752 | 18740 ft | 379 kts | 234° |
| 2026-05-07 18:33 | 53.45949 | 9.13165 | 19276 ft | 382 kts | 234° |
| 2026-05-07 18:33 | 53.44375 | 9.09549 | 19792 ft | 385 kts | 234° |
| 2026-05-07 18:33 | 53.42793 | 9.05919 | 20343 ft | 387 kts | 234° |
| 2026-05-07 18:34 | 53.41202 | 9.02273 | 20881 ft | 389 kts | 234° |
| 2026-05-07 18:34 | 53.39597 | 8.98606 | 21382 ft | 392 kts | 234° |
| 2026-05-07 18:34 | 53.37980 | 8.94921 | 21911 ft | 394 kts | 234° |
| 2026-05-07 18:34 | 53.36353 | 8.91219 | 22419 ft | 396 kts | 234° |
| 2026-05-07 18:35 | 53.34845 | 8.87354 | 22902 ft | 398 kts | 242° |
| 2026-05-07 18:35 | 53.33735 | 8.83105 | 23390 ft | 400 kts | 250° |
| 2026-05-07 18:35 | 53.32779 | 8.78721 | 23837 ft | 402 kts | 250° |
| 2026-05-07 18:35 | 53.31811 | 8.74314 | 24242 ft | 405 kts | 250° |
| 2026-05-07 18:36 | 53.30833 | 8.69882 | 24597 ft | 408 kts | 250° |
| 2026-05-07 18:36 | 53.29845 | 8.65419 | 24977 ft | 411 kts | 250° |
| 2026-05-07 18:36 | 53.28855 | 8.60933 | 25359 ft | 413 kts | 250° |
| 2026-05-07 18:36 | 53.27863 | 8.56418 | 25733 ft | 415 kts | 250° |
| 2026-05-07 18:37 | 53.26868 | 8.51878 | 26100 ft | 417 kts | 250° |
| 2026-05-07 18:37 | 53.25888 | 8.47310 | 26465 ft | 419 kts | 251° |
| 2026-05-07 18:37 | 53.24984 | 8.42743 | 26822 ft | 421 kts | 252° |
| 2026-05-07 18:37 | 53.24113 | 8.38065 | 27189 ft | 423 kts | 253° |
| 2026-05-07 18:38 | 53.23260 | 8.33348 | 27548 ft | 425 kts | 253° |
| 2026-05-07 18:38 | 53.22404 | 8.28609 | 27908 ft | 427 kts | 253° |
| 2026-05-07 18:38 | 53.21533 | 8.23851 | 28258 ft | 430 kts | 253° |
| 2026-05-07 18:38 | 53.20548 | 8.19139 | 28594 ft | 432 kts | 244° |
| 2026-05-07 18:39 | 53.18973 | 8.14871 | 28864 ft | 435 kts | 234° |
| 2026-05-07 18:39 | 53.17201 | 8.10773 | 29176 ft | 437 kts | 234° |
| 2026-05-07 18:39 | 53.15403 | 8.06674 | 29480 ft | 439 kts | 234° |
| 2026-05-07 18:39 | 53.13590 | 8.02569 | 29779 ft | 441 kts | 234° |
| 2026-05-07 18:40 | 53.12385 | 7.99847 | 29981 ft | 442 kts | 234° |
| 2026-05-07 18:40 | 53.10554 | 7.95712 | 30263 ft | 444 kts | 234° |
| 2026-05-07 18:40 | 53.08720 | 7.91570 | 30501 ft | 446 kts | 234° |
| 2026-05-07 18:40 | 53.06878 | 7.87410 | 30797 ft | 446 kts | 233° |
| 2026-05-07 18:41 | 53.05040 | 7.83258 | 31155 ft | 445 kts | 233° |
| 2026-05-07 18:41 | 53.03205 | 7.79114 | 31484 ft | 445 kts | 233° |
| 2026-05-07 18:41 | 53.01372 | 7.74975 | 31834 ft | 444 kts | 233° |
| 2026-05-07 18:41 | 52.99537 | 7.70845 | 32187 ft | 443 kts | 233° |
| 2026-05-07 18:42 | 52.97709 | 7.66738 | 32578 ft | 442 kts | 233° |
| 2026-05-07 18:42 | 52.95884 | 7.62647 | 32944 ft | 441 kts | 233° |
| 2026-05-07 18:42 | 52.94085 | 7.58626 | 33294 ft | 440 kts | 233° |
| 2026-05-07 18:42 | 52.92263 | 7.54562 | 33605 ft | 440 kts | 233° |
| 2026-05-07 18:43 | 52.90437 | 7.50497 | 33953 ft | 439 kts | 233° |
| 2026-05-07 18:43 | 52.88610 | 7.46434 | 34092 ft | 439 kts | 233° |
| 2026-05-07 18:43 | 52.86788 | 7.42385 | 34115 ft | 438 kts | 233° |
| 2026-05-07 18:44 | 52.83156 | 7.34327 | 34116 ft | 436 kts | 232° |
| 2026-05-07 18:44 | 52.79522 | 7.26278 | 34114 ft | 436 kts | 233° |
| 2026-05-07 18:45 | 52.75916 | 7.18319 | 34114 ft | 435 kts | 233° |
| 2026-05-07 18:45 | 52.72283 | 7.10350 | 34111 ft | 434 kts | 233° |
| 2026-05-07 18:46 | 52.68628 | 7.02341 | 34112 ft | 434 kts | 232° |
| 2026-05-07 18:46 | 52.64961 | 6.94335 | 34112 ft | 444 kts | 232° |
| 2026-05-07 18:47 | 52.61210 | 6.86173 | 34115 ft | 456 kts | 232° |
| 2026-05-07 18:47 | 52.57354 | 6.77822 | 34106 ft | 460 kts | 232° |
| 2026-05-07 18:48 | 52.53488 | 6.69466 | 34103 ft | 459 kts | 232° |
| 2026-05-07 18:48 | 52.49628 | 6.61127 | 34103 ft | 458 kts | 232° |
| 2026-05-07 18:49 | 52.45760 | 6.52817 | 34099 ft | 458 kts | 232° |
| 2026-05-07 18:49 | 52.41884 | 6.44525 | 34106 ft | 458 kts | 232° |
| 2026-05-07 18:50 | 52.38008 | 6.36250 | 34104 ft | 457 kts | 232° |
| 2026-05-07 18:50 | 52.34106 | 6.27956 | 34096 ft | 456 kts | 232° |
| 2026-05-07 18:51 | 52.30229 | 6.19753 | 34090 ft | 456 kts | 232° |
| 2026-05-07 18:51 | 52.26381 | 6.11614 | 34091 ft | 456 kts | 232° |
| 2026-05-07 18:52 | 52.22503 | 6.03428 | 34092 ft | 456 kts | 232° |
| 2026-05-07 18:52 | 52.18619 | 5.95261 | 34087 ft | 456 kts | 232° |
| 2026-05-07 18:53 | 52.14782 | 5.87241 | 33823 ft | 443 kts | 232° |
| 2026-05-07 18:53 | 52.12869 | 5.83259 | 33248 ft | 439 kts | 232° |
| 2026-05-07 18:53 | 52.10989 | 5.79347 | 32706 ft | 438 kts | 232° |
| 2026-05-07 18:53 | 52.09115 | 5.75443 | 32177 ft | 437 kts | 232° |
| 2026-05-07 18:54 | 52.07257 | 5.71570 | 31649 ft | 432 kts | 232° |
| 2026-05-07 18:54 | 52.05416 | 5.67743 | 31129 ft | 428 kts | 232° |
| 2026-05-07 18:54 | 52.03584 | 5.63948 | 30640 ft | 425 kts | 232° |
| 2026-05-07 18:54 | 52.01769 | 5.60193 | 30145 ft | 421 kts | 232° |
| 2026-05-07 18:55 | 51.99967 | 5.56471 | 29572 ft | 417 kts | 232° |
| 2026-05-07 18:55 | 51.98182 | 5.52792 | 29003 ft | 414 kts | 232° |
| 2026-05-07 18:55 | 51.96405 | 5.49138 | 28445 ft | 411 kts | 232° |
| 2026-05-07 18:55 | 51.94645 | 5.45519 | 27909 ft | 407 kts | 232° |
| 2026-05-07 18:56 | 51.92899 | 5.41928 | 27420 ft | 405 kts | 232° |
| 2026-05-07 18:56 | 51.91162 | 5.38357 | 26937 ft | 401 kts | 232° |
| 2026-05-07 18:56 | 51.89440 | 5.34824 | 26481 ft | 398 kts | 232° |
| 2026-05-07 18:56 | 51.87730 | 5.31319 | 26020 ft | 395 kts | 232° |
| 2026-05-07 18:57 | 51.86029 | 5.27841 | 25556 ft | 393 kts | 232° |
| 2026-05-07 18:57 | 51.84357 | 5.24434 | 25121 ft | 391 kts | 232° |
| 2026-05-07 18:57 | 51.82672 | 5.21003 | 24687 ft | 388 kts | 232° |
| 2026-05-07 18:57 | 51.80999 | 5.17596 | 24254 ft | 386 kts | 232° |
| 2026-05-07 18:58 | 51.79332 | 5.14205 | 23828 ft | 384 kts | 232° |
| 2026-05-07 18:58 | 51.77671 | 5.10836 | 23360 ft | 382 kts | 232° |
| 2026-05-07 18:58 | 51.76020 | 5.07495 | 22859 ft | 380 kts | 232° |
| 2026-05-07 18:58 | 51.74376 | 5.04170 | 22358 ft | 378 kts | 232° |
| 2026-05-07 18:59 | 51.72745 | 5.00870 | 21884 ft | 375 kts | 232° |
| 2026-05-07 18:59 | 51.71119 | 4.97588 | 21408 ft | 373 kts | 232° |
| 2026-05-07 18:59 | 51.69503 | 4.94331 | 20934 ft | 371 kts | 232° |
| 2026-05-07 18:59 | 51.67895 | 4.91097 | 20474 ft | 369 kts | 232° |
| 2026-05-07 19:00 | 51.66319 | 4.87931 | 20030 ft | 367 kts | 232° |
| 2026-05-07 19:00 | 51.64724 | 4.84721 | 19594 ft | 369 kts | 232° |
| 2026-05-07 19:00 | 51.63090 | 4.81436 | 19290 ft | 380 kts | 232° |
| 2026-05-07 19:00 | 51.61427 | 4.78098 | 18971 ft | 382 kts | 231° |
| 2026-05-07 19:01 | 51.59764 | 4.74770 | 18664 ft | 382 kts | 231° |
| 2026-05-07 19:01 | 51.58105 | 4.71454 | 18353 ft | 381 kts | 231° |
| 2026-05-07 19:01 | 51.56443 | 4.68138 | 17997 ft | 379 kts | 231° |
| 2026-05-07 19:01 | 51.54796 | 4.64848 | 17641 ft | 377 kts | 231° |
| 2026-05-07 19:02 | 51.53154 | 4.61571 | 17298 ft | 375 kts | 231° |
| 2026-05-07 19:02 | 51.51520 | 4.58319 | 16949 ft | 374 kts | 231° |
| 2026-05-07 19:02 | 51.49893 | 4.55083 | 16613 ft | 372 kts | 231° |
| 2026-05-07 19:02 | 51.48271 | 4.51866 | 16256 ft | 370 kts | 231° |
| 2026-05-07 19:03 | 51.46655 | 4.48672 | 15935 ft | 368 kts | 231° |
| 2026-05-07 19:03 | 51.45068 | 4.45538 | 15610 ft | 366 kts | 231° |
| 2026-05-07 19:03 | 51.43465 | 4.42375 | 15255 ft | 365 kts | 231° |
| 2026-05-07 19:03 | 51.41832 | 4.39286 | 14881 ft | 363 kts | 226° |
| 2026-05-07 19:04 | 51.39939 | 4.36634 | 14517 ft | 361 kts | 216° |
| 2026-05-07 19:04 | 51.37806 | 4.34553 | 14154 ft | 360 kts | 206° |
| 2026-05-07 19:04 | 51.35420 | 4.33499 | 13783 ft | 355 kts | 185° |
| 2026-05-07 19:04 | 51.32987 | 4.33901 | 13379 ft | 351 kts | 165° |
| 2026-05-07 19:05 | 51.30677 | 4.35054 | 12951 ft | 346 kts | 163° |
| 2026-05-07 19:05 | 51.28408 | 4.36252 | 12507 ft | 341 kts | 162° |
| 2026-05-07 19:05 | 51.26165 | 4.37443 | 12067 ft | 338 kts | 162° |
| 2026-05-07 19:05 | 51.23959 | 4.38614 | 11616 ft | 328 kts | 162° |
| 2026-05-07 19:06 | 51.21841 | 4.39738 | 11188 ft | 313 kts | 162° |
| 2026-05-07 19:06 | 51.17893 | 4.41836 | 10361 ft | 291 kts | 162° |
| 2026-05-07 19:06 | 51.15951 | 4.42866 | 9940 ft | 288 kts | 162° |
| 2026-05-07 19:07 | 51.14066 | 4.43864 | 9488 ft | 286 kts | 162° |
| 2026-05-07 19:07 | 51.12172 | 4.44858 | 9027 ft | 284 kts | 162° |
| 2026-05-07 19:07 | 51.10304 | 4.45832 | 8584 ft | 281 kts | 162° |
| 2026-05-07 19:07 | 51.08456 | 4.46789 | 8151 ft | 278 kts | 162° |
| 2026-05-07 19:08 | 51.06635 | 4.47762 | 7705 ft | 275 kts | 157° |
| 2026-05-07 19:08 | 51.05104 | 4.49517 | 7278 ft | 273 kts | 129° |
| 2026-05-07 19:08 | 51.04272 | 4.52191 | 6855 ft | 273 kts | 102° |
| 2026-05-07 19:08 | 51.04327 | 4.55177 | 6434 ft | 273 kts | 75° |
| 2026-05-07 19:09 | 51.04971 | 4.58010 | 6106 ft | 270 kts | 68° |
| 2026-05-07 19:09 | 51.05688 | 4.60762 | 6082 ft | 270 kts | 68° |
| 2026-05-07 19:09 | 51.06404 | 4.63479 | 6087 ft | 271 kts | 68° |
| 2026-05-07 19:09 | 51.07133 | 4.66240 | 6086 ft | 271 kts | 68° |
| 2026-05-07 19:10 | 51.07642 | 4.69100 | 6075 ft | 270 kts | 87° |
| 2026-05-07 19:10 | 51.07460 | 4.72063 | 5680 ft | 269 kts | 101° |
| 2026-05-07 19:10 | 51.07078 | 4.74950 | 5154 ft | 264 kts | 102° |
| 2026-05-07 19:10 | 51.06677 | 4.77757 | 4638 ft | 256 kts | 103° |
| 2026-05-07 19:11 | 51.06262 | 4.80465 | 4100 ft | 249 kts | 108° |
| 2026-05-07 19:11 | 51.05346 | 4.82723 | 3598 ft | 243 kts | 139° |
| 2026-05-07 19:11 | 51.03855 | 4.83870 | 3087 ft | 239 kts | 171° |
| 2026-05-07 19:11 | 51.02233 | 4.83597 | 2571 ft | 236 kts | 203° |
| 2026-05-07 19:12 | 51.00887 | 4.82149 | 2110 ft | 232 kts | 221° |
| 2026-05-07 19:12 | 50.99736 | 4.80503 | 2009 ft | 213 kts | 223° |
| 2026-05-07 19:12 | 50.98653 | 4.78905 | 2017 ft | 210 kts | 223° |
| 2026-05-07 19:12 | 50.97622 | 4.77379 | 2033 ft | 194 kts | 223° |
| 2026-05-07 19:13 | 50.96669 | 4.75966 | 2019 ft | 183 kts | 223° |
| 2026-05-07 19:13 | 50.95753 | 4.74607 | 2031 ft | 178 kts | 223° |
| 2026-05-07 19:13 | 50.94854 | 4.73255 | 2032 ft | 178 kts | 226° |
| 2026-05-07 19:13 | 50.94308 | 4.71526 | 2028 ft | 178 kts | 254° |
| 2026-05-07 19:14 | 50.93896 | 4.69681 | 2019 ft | 177 kts | 249° |
| 2026-05-07 19:14 | 50.93462 | 4.67846 | 2008 ft | 178 kts | 249° |
| 2026-05-07 19:14 | 50.93061 | 4.66116 | 1933 ft | 157 kts | 250° |
| 2026-05-07 19:14 | 50.92698 | 4.64539 | 1778 ft | 149 kts | 250° |
| 2026-05-07 19:15 | 50.92349 | 4.63019 | 1606 ft | 146 kts | 250° |
| 2026-05-07 19:15 | 50.92004 | 4.61519 | 1416 ft | 144 kts | 250° |
| 2026-05-07 19:15 | 50.91660 | 4.60036 | 1210 ft | 143 kts | 251° |
| 2026-05-07 19:15 | 50.91342 | 4.58538 | 1008 ft | 142 kts | 251° |
| 2026-05-07 19:16 | 50.90998 | 4.57068 | 814 ft | 144 kts | 250° |
| 2026-05-07 19:16 | 50.90634 | 4.55569 | 630 ft | 147 kts | 249° |
| 2026-05-07 19:16 | 50.90286 | 4.54066 | 438 ft | 143 kts | 251° |
| 2026-05-07 19:16 | 50.89953 | 4.52584 | 254 ft | 141 kts | 250° |
| 2026-05-07 19:17 | 50.89636 | 4.51210 | 174 ft | 118 kts | 250° |
| 2026-05-07 19:17 | 50.89410 | 4.50228 | 176 ft | 69 kts | 250° |
| 2026-05-07 19:17 | 50.89336 | 4.49898 | 177 ft | 21 kts | 258° |
| 2026-05-07 19:17 | 50.89363 | 4.49687 | 174 ft | 13 kts | 306° |
| 2026-05-07 19:18 | 50.89397 | 4.49613 | 169 ft | 0 kts | 307° |
| 2026-05-07 19:18 | 50.89405 | 4.49598 | 169 ft | 4 kts | 307° |
| 2026-05-07 19:19 | 50.89428 | 4.49550 | 168 ft | 9 kts | 307° |
| 2026-05-07 19:19 | 50.89494 | 4.49411 | 164 ft | 19 kts | 307° |
| 2026-05-07 19:19 | 50.89549 | 4.49296 | 160 ft | 8 kts | 307° |
| 2026-05-07 19:19 | 50.89596 | 4.49242 | 155 ft | 10 kts | 358° |
| 2026-05-07 19:20 | 50.89669 | 4.49272 | 151 ft | 10 kts | 15° |
| 2026-05-07 19:20 | 50.89739 | 4.49301 | 147 ft | 7 kts | 14° |
| 2026-05-07 19:20 | 50.89786 | 4.49320 | 144 ft | 9 kts | 14° |
| 2026-05-07 19:20 | 50.89838 | 4.49341 | 140 ft | 8 kts | 14° |
| 2026-05-07 19:21 | 50.89856 | 4.49348 | 139 ft | 0 kts | 14° |
| 2026-05-07 19:22 | 50.89857 | 4.49348 | 139 ft | 1 kts | 14° |
| 2026-05-07 19:22 | 50.89877 | 4.49348 | 138 ft | 6 kts | 349° |
| 2026-05-07 19:22 | 50.89933 | 4.49289 | 135 ft | 9 kts | 325° |
| 2026-05-07 19:23 | 50.89998 | 4.49290 | 132 ft | 8 kts | 15° |
| 2026-05-07 19:23 | 50.90058 | 4.49315 | 129 ft | 9 kts | 12° |
| 2026-05-07 19:23 | 50.90114 | 4.49336 | 131 ft | 8 kts | 14° |
| 2026-05-07 19:23 | 50.90166 | 4.49357 | 126 ft | 8 kts | 14° |
| 2026-05-07 19:24 | 50.90224 | 4.49381 | 128 ft | 9 kts | 14° |
| 2026-05-07 19:24 | 50.90287 | 4.49406 | 126 ft | 9 kts | 14° |
| 2026-05-07 19:24 | 50.90293 | 4.49409 | 126 ft | 0 kts | 14° |
| 2026-05-07 19:25 | 50.90323 | 4.49396 | 125 ft | 10 kts | 320° |
| 2026-05-07 19:25 | 50.90368 | 4.49336 | 122 ft | 8 kts | 332° |
| 2026-05-07 19:25 | 50.90420 | 4.49299 | 120 ft | 9 kts | 337° |
| 2026-05-07 19:25 | 50.90477 | 4.49256 | 121 ft | 9 kts | 335° |
| 2026-05-07 19:26 | 50.90522 | 4.49224 | 120 ft | 6 kts | 335° |
| 2026-05-07 19:26 | 50.90553 | 4.49201 | 123 ft | 4 kts | 335° |
| 2026-05-07 19:26 | 50.90578 | 4.49183 | 123 ft | 4 kts | 335° |
| 2026-05-07 19:26 | 50.90604 | 4.49165 | 120 ft | 5 kts | 336° |
| 2026-05-07 19:27 | 50.90607 | 4.49163 | 120 ft | 0 kts | 336° |
| 2026-05-07 19:29 | 50.90617 | 4.49155 | 120 ft | 4 kts | 336° |
| 2026-05-07 19:29 | 50.90643 | 4.49065 | 120 ft | 13 kts | 250° |
| 2026-05-07 19:29 | 50.90606 | 4.48941 | 117 ft | 12 kts | 245° |
| 2026-05-07 19:29 | 50.90579 | 4.48847 | 118 ft | 8 kts | 245° |
| 2026-05-07 19:30 | 50.90548 | 4.48794 | 118 ft | 6 kts | 175° |
| 2026-05-07 19:30 | 50.90513 | 4.48819 | 118 ft | 5 kts | 155° |
| 2026-05-07 19:30 | 50.90488 | 4.48837 | 120 ft | 2 kts | 155° |
| 2026-05-07 19:30 | 50.90480 | 4.48843 | 116 ft | 1 kts | 155° |
| 2026-05-07 19:31 | 50.90476 | 4.48846 | 117 ft | 0 kts | 155° |
| 2026-05-07 19:31 | 50.90475 | 4.48846 | 117 ft | 0 kts | 155° |